Time;durP1;ratioP1;P1;durP2;ratioP2;P2;SDS_P1;SDS_P2;PMS_P1;PMS_P2;Temp;Humidity;BMP_temperature;BMP_pressure;BME280_temperature;BME280_humidity;BME280_pressure;Samples;Min_cycle;Max_cycle;Signal;HPM_P1;HPM_P2
2021/03/07 00:02:12;;;;;;;9.73;8.10;;;-3.10;57.90;;;;;;5062577;28;20516;-76
2021/03/07 00:04:38;;;;;;;9.87;7.37;;;-3.00;58.30;;;;;;5058988;28;20905;-76
2021/03/07 00:07:05;;;;;;;11.23;9.20;;;-3.10;57.90;;;;;;5067565;28;23010;-78
2021/03/07 00:09:31;;;;;;;9.63;7.97;;;-3.10;58.20;;;;;;5066346;28;20557;-75
2021/03/07 00:11:57;;;;;;;10.53;8.70;;;-3.10;58.50;;;;;;5061392;28;20513;-80
2021/03/07 00:14:24;;;;;;;10.87;8.37;;;-3.10;58.50;;;;;;5067995;28;20465;-76
2021/03/07 00:16:50;;;;;;;10.33;7.73;;;-3.10;58.70;;;;;;5065130;28;20845;-76
2021/03/07 00:19:17;;;;;;;10.90;7.83;;;-3.20;58.90;;;;;;5068533;28;20807;-76
2021/03/07 00:21:44;;;;;;;12.23;8.40;;;-3.10;59.30;;;;;;5063450;28;20444;-76
2021/03/07 00:24:10;;;;;;;10.50;6.70;;;-3.00;59.00;;;;;;5065133;28;20541;-75
2021/03/07 00:26:37;;;;;;;10.50;7.33;;;-2.80;58.60;;;;;;5064682;28;20502;-76
2021/03/07 00:29:03;;;;;;;9.47;7.80;;;-2.90;58.30;;;;;;5060131;28;20633;-75
2021/03/07 00:31:30;;;;;;;9.00;6.77;;;-3.10;58.00;;;;;;5058684;28;20463;-77
2021/03/07 00:33:56;;;;;;;11.23;8.20;;;-3.20;58.50;;;;;;5061245;28;20525;-75
2021/03/07 00:36:23;;;;;;;10.60;7.40;;;-3.20;58.80;;;;;;5064523;28;20452;-76
2021/03/07 00:38:50;;;;;;;10.80;7.50;;;-3.30;59.20;;;;;;5062629;28;20899;-77
2021/03/07 00:41:16;;;;;;;9.60;7.50;;;-3.30;59.30;;;;;;5066903;28;21059;-75
2021/03/07 00:43:43;;;;;;;10.57;7.80;;;-3.40;59.60;;;;;;5064205;28;20450;-75
2021/03/07 00:46:09;;;;;;;7.73;6.30;;;-3.40;59.60;;;;;;5066757;28;20458;-76
2021/03/07 00:48:35;;;;;;;10.77;6.70;;;-3.40;60.00;;;;;;5069626;28;21350;-75
2021/03/07 00:51:02;;;;;;;10.57;7.17;;;-3.40;60.20;;;;;;5068157;28;20820;-81
2021/03/07 00:53:30;;;;;;;8.33;6.90;;;-3.40;60.50;;;;;;5066865;28;20884;-75
2021/03/07 00:55:56;;;;;;;8.90;7.03;;;-3.40;60.00;;;;;;5063002;28;21030;-78
2021/03/07 00:58:22;;;;;;;10.90;7.07;;;-3.40;60.50;;;;;;5066028;28;20582;-77
2021/03/07 01:00:48;;;;;;;10.90;7.50;;;-3.40;60.50;;;;;;5060779;28;20454;-77
2021/03/07 01:03:15;;;;;;;9.80;7.10;;;-3.50;60.50;;;;;;5060089;28;20445;-76
2021/03/07 01:05:42;;;;;;;7.43;6.50;;;-3.40;60.60;;;;;;5061981;28;20871;-77
2021/03/07 01:08:09;;;;;;;9.90;6.80;;;-3.40;60.70;;;;;;5058628;28;20544;-76
2021/03/07 01:10:39;;;;;;;9.70;6.90;;;-3.40;60.40;;;;;;5059621;28;20452;-79
2021/03/07 01:13:07;;;;;;;9.87;6.73;;;-3.40;60.20;;;;;;5058292;28;20481;-76
2021/03/07 01:15:33;;;;;;;8.33;6.43;;;-3.40;60.40;;;;;;5059704;28;20458;-76
2021/03/07 01:18:01;;;;;;;7.17;6.20;;;-3.50;60.30;;;;;;5062551;28;21005;-76
2021/03/07 01:20:28;;;;;;;8.63;6.30;;;-3.30;60.60;;;;;;5059909;28;20487;-76
2021/03/07 01:22:55;;;;;;;9.93;6.73;;;-3.50;60.60;;;;;;5057395;28;20831;-76
2021/03/07 01:25:22;;;;;;;8.27;6.90;;;-3.60;60.80;;;;;;5060739;28;20905;-76
2021/03/07 01:27:49;;;;;;;8.00;5.93;;;-3.50;61.10;;;;;;5061945;28;21103;-75
2021/03/07 01:30:18;;;;;;;7.77;6.10;;;-3.60;60.90;;;;;;5058785;28;20450;-75
2021/03/07 01:32:45;;;;;;;9.13;6.70;;;-3.50;61.30;;;;;;5052383;28;21012;-75
2021/03/07 01:35:12;;;;;;;6.77;6.00;;;-3.50;61.00;;;;;;5054662;28;20955;-81
2021/03/07 01:37:39;;;;;;;9.10;7.03;;;-3.60;61.10;;;;;;5059400;28;20848;-75
2021/03/07 01:40:08;;;;;;;9.67;6.03;;;-3.70;61.30;;;;;;5059724;28;20904;-76
2021/03/07 01:42:35;;;;;;;8.60;6.77;;;-3.60;61.60;;;;;;5045019;28;20462;-75
2021/03/07 01:45:05;;;;;;;8.80;6.60;;;-3.60;61.30;;;;;;5056286;28;20451;-75
2021/03/07 01:47:33;;;;;;;8.77;5.90;;;-3.60;61.60;;;;;;5065087;28;20443;-76
2021/03/07 01:50:01;;;;;;;9.47;6.43;;;-3.40;61.70;;;;;;5069992;28;21035;-75
2021/03/07 01:52:27;;;;;;;8.63;6.23;;;-3.40;61.70;;;;;;5067708;28;21076;-76
2021/03/07 01:54:53;;;;;;;6.47;5.80;;;-3.60;61.60;;;;;;5072051;28;20545;-76
2021/03/07 01:57:24;;;;;;;7.60;6.00;;;-3.50;61.70;;;;;;5060171;28;20477;-76
2021/03/07 01:59:54;;;;;;;6.63;5.90;;;-3.50;61.70;;;;;;5060017;28;20456;-76
2021/03/07 02:02:21;;;;;;;11.57;6.60;;;-3.50;61.30;;;;;;5058177;28;20454;-75
2021/03/07 02:04:47;;;;;;;9.27;6.43;;;-3.60;61.40;;;;;;5062892;28;20585;-75
2021/03/07 02:07:14;;;;;;;8.07;6.00;;;-3.60;61.50;;;;;;5059763;28;20456;-78
2021/03/07 02:09:40;;;;;;;9.03;6.17;;;-3.70;61.50;;;;;;5053890;28;20483;-75
2021/03/07 02:12:08;;;;;;;8.27;5.50;;;-3.70;61.70;;;;;;5059524;28;20562;-77
2021/03/07 02:14:37;;;;;;;8.40;6.47;;;-3.70;61.60;;;;;;5057093;28;21043;-78
2021/03/07 02:17:03;;;;;;;7.40;5.53;;;-3.70;61.90;;;;;;5059470;28;20593;-76
2021/03/07 02:19:37;;;;;;;7.80;5.87;;;-3.60;61.90;;;;;;5067041;28;20815;-76
2021/03/07 02:22:08;;;;;;;9.73;6.30;;;-3.70;61.90;;;;;;5063160;28;20458;-78
2021/03/07 02:24:35;;;;;;;8.13;6.60;;;-3.70;62.30;;;;;;5059026;28;20448;-76
2021/03/07 02:27:02;;;;;;;9.93;6.10;;;-3.70;62.50;;;;;;5059018;28;20442;-76
2021/03/07 02:29:28;;;;;;;9.60;6.27;;;-3.80;62.60;;;;;;5071398;28;20448;-75
2021/03/07 02:31:58;;;;;;;6.27;5.67;;;-3.80;62.60;;;;;;5066197;28;20473;-79
2021/03/07 02:34:31;;;;;;;7.20;6.50;;;-3.80;62.60;;;;;;5074468;28;20562;-76
2021/03/07 02:37:00;;;;;;;7.93;5.77;;;-3.90;62.70;;;;;;5074170;28;20447;-75
2021/03/07 02:39:31;;;;;;;8.17;5.87;;;-3.80;62.60;;;;;;5070674;28;20462;-76
2021/03/07 02:42:03;;;;;;;9.40;5.30;;;-3.90;62.80;;;;;;5060811;28;21226;-75
2021/03/07 02:44:32;;;;;;;6.83;5.53;;;-3.90;62.70;;;;;;5064402;28;20549;-78
2021/03/07 02:47:00;;;;;;;8.23;6.03;;;-3.90;63.10;;;;;;5063993;28;21093;-76
2021/03/07 02:49:27;;;;;;;9.00;6.20;;;-3.90;63.20;;;;;;5069324;28;20457;-74
2021/03/07 02:51:56;;;;;;;6.57;5.93;;;-3.90;63.30;;;;;;5065940;28;20460;-75
2021/03/07 02:54:24;;;;;;;7.57;5.50;;;-4.00;63.40;;;;;;5065671;28;20491;-77
2021/03/07 02:56:53;;;;;;;7.47;5.77;;;-4.00;63.80;;;;;;5074046;28;20524;-77
2021/03/07 02:59:22;;;;;;;5.90;5.10;;;-4.00;64.00;;;;;;5071076;28;20550;-75
2021/03/07 03:01:53;;;;;;;7.20;5.60;;;-4.10;64.00;;;;;;5072450;28;20463;-76
2021/03/07 03:04:21;;;;;;;9.03;6.70;;;-4.20;64.50;;;;;;5070897;28;20457;-75
2021/03/07 03:06:49;;;;;;;7.13;5.80;;;-4.10;64.90;;;;;;5064074;28;20459;-79
2021/03/07 03:09:17;;;;;;;10.03;6.07;;;-4.20;64.40;;;;;;5069465;28;20469;-75
2021/03/07 03:11:44;;;;;;;8.93;5.77;;;-4.20;64.90;;;;;;5070449;28;20447;-78
2021/03/07 03:14:13;;;;;;;8.67;6.13;;;-4.30;65.00;;;;;;5065708;28;20484;-77
2021/03/07 03:16:47;;;;;;;8.20;6.10;;;-4.20;65.40;;;;;;5063157;28;20517;-78
2021/03/07 03:19:14;;;;;;;7.53;5.73;;;-4.30;65.30;;;;;;5066293;28;21077;-76
2021/03/07 03:21:43;;;;;;;8.73;6.70;;;-4.40;65.70;;;;;;5057120;28;20457;-76
2021/03/07 03:24:10;;;;;;;8.90;6.73;;;-4.40;66.40;;;;;;5065614;28;20869;-74
2021/03/07 03:26:36;;;;;;;9.23;6.50;;;-4.40;66.30;;;;;;5065318;28;20452;-77
2021/03/07 03:29:04;;;;;;;8.93;6.17;;;-4.40;66.60;;;;;;5066967;28;20967;-78
2021/03/07 03:31:31;;;;;;;8.73;6.87;;;-4.40;66.90;;;;;;5065497;28;20561;-78
2021/03/07 03:33:58;;;;;;;7.83;6.73;;;-4.50;67.20;;;;;;5059146;28;20530;-75
2021/03/07 03:36:25;;;;;;;8.00;5.80;;;-4.40;67.70;;;;;;5061057;28;20450;-75
2021/03/07 03:38:54;;;;;;;8.73;7.23;;;-4.40;67.40;;;;;;5060780;28;20951;-75
2021/03/07 03:41:22;;;;;;;7.53;5.83;;;-4.40;67.50;;;;;;5064113;28;20460;-76
2021/03/07 03:43:54;;;;;;;6.80;6.10;;;-4.40;67.80;;;;;;5061039;28;20452;-78
2021/03/07 03:46:22;;;;;;;10.40;6.97;;;-4.30;67.10;;;;;;5051368;28;20468;-77
2021/03/07 03:48:51;;;;;;;9.47;6.33;;;-4.30;67.00;;;;;;5061880;28;20457;-76
2021/03/07 03:51:20;;;;;;;6.73;5.47;;;-4.30;67.30;;;;;;5061570;28;20544;-79
2021/03/07 03:53:48;;;;;;;6.40;5.53;;;-4.20;67.70;;;;;;5065166;28;20474;-76
2021/03/07 03:56:17;;;;;;;9.13;6.10;;;-4.20;67.70;;;;;;5061597;28;20466;-77
2021/03/07 03:58:45;;;;;;;12.43;7.70;;;-4.10;67.90;;;;;;5068659;28;20443;-75
2021/03/07 04:01:16;;;;;;;12.50;7.60;;;-4.20;67.30;;;;;;5062581;28;20453;-75
2021/03/07 04:03:43;;;;;;;10.87;8.40;;;-4.20;67.30;;;;;;5059875;28;20479;-76
2021/03/07 04:06:10;;;;;;;10.43;8.50;;;-4.10;67.20;;;;;;5058747;28;20455;-74
2021/03/07 04:08:37;;;;;;;10.07;8.40;;;-4.20;67.10;;;;;;5066109;28;20485;-79
2021/03/07 04:11:04;;;;;;;9.90;8.80;;;-4.10;67.60;;;;;;5059671;28;20451;-74
2021/03/07 04:13:32;;;;;;;9.87;7.73;;;-4.00;67.60;;;;;;5059266;28;20456;-79
2021/03/07 04:15:58;;;;;;;11.40;9.53;;;-4.00;67.00;;;;;;5064569;28;21051;-74
2021/03/07 04:18:26;;;;;;;10.13;8.67;;;-4.10;66.80;;;;;;5059715;28;21117;-78
2021/03/07 04:20:54;;;;;;;9.53;8.00;;;-4.10;67.30;;;;;;5060113;28;21271;-79
2021/03/07 04:23:21;;;;;;;13.17;9.50;;;-4.10;67.10;;;;;;5054966;28;20458;-77
2021/03/07 04:25:48;;;;;;;15.23;9.90;;;-4.10;67.30;;;;;;5059476;28;21249;-76
2021/03/07 04:28:15;;;;;;;14.27;9.93;;;-4.00;67.40;;;;;;5053560;28;20481;-77
2021/03/07 04:30:42;;;;;;;16.10;9.47;;;-4.10;67.40;;;;;;5059180;28;20459;-77
2021/03/07 04:33:09;;;;;;;13.50;9.53;;;-4.20;67.50;;;;;;5056508;28;20474;-76
2021/03/07 04:35:38;;;;;;;13.93;10.30;;;-4.20;68.00;;;;;;5065462;28;20455;-78
2021/03/07 04:38:06;;;;;;;13.17;9.37;;;-4.20;68.00;;;;;;5055716;28;20547;-76
2021/03/07 04:40:34;;;;;;;14.53;9.83;;;-4.30;68.60;;;;;;5065697;28;20454;-76
2021/03/07 04:43:03;;;;;;;11.77;8.83;;;-4.40;68.80;;;;;;5065099;28;20469;-76
2021/03/07 04:45:30;;;;;;;13.87;9.77;;;-4.40;69.50;;;;;;5069128;28;21069;-76
2021/03/07 04:47:56;;;;;;;14.10;9.30;;;-4.30;70.40;;;;;;5062737;28;20538;-76
2021/03/07 04:50:23;;;;;;;13.97;9.37;;;-4.40;69.60;;;;;;5059497;28;20458;-75
2021/03/07 04:52:49;;;;;;;15.30;9.87;;;-4.40;70.10;;;;;;5054638;28;20466;-76
2021/03/07 04:55:16;;;;;;;13.87;10.03;;;-4.30;70.50;;;;;;5058393;28;20462;-77
2021/03/07 04:57:43;;;;;;;13.40;8.67;;;-4.30;70.40;;;;;;5061262;28;20459;-76
2021/03/07 05:00:14;;;;;;;14.90;10.07;;;-4.30;70.60;;;;;;5065228;28;20462;-77
2021/03/07 05:02:40;;;;;;;12.87;9.60;;;-4.30;70.60;;;;;;5061575;28;20444;-75
2021/03/07 05:05:08;;;;;;;13.90;9.93;;;-4.30;70.60;;;;;;5061965;28;20532;-75
2021/03/07 05:07:34;;;;;;;14.10;11.00;;;-4.40;71.10;;;;;;5057744;28;20476;-76
2021/03/07 05:10:00;;;;;;;14.50;10.50;;;-4.30;71.70;;;;;;5065439;28;20499;-76
2021/03/07 05:12:27;;;;;;;13.83;10.33;;;-4.40;70.40;;;;;;5065461;28;20978;-75
2021/03/07 05:14:53;;;;;;;15.90;9.57;;;-4.50;71.10;;;;;;5059385;28;20561;-75
2021/03/07 05:17:23;;;;;;;10.60;8.63;;;-4.50;72.20;;;;;;5059493;28;20470;-76
2021/03/07 05:19:50;;;;;;;10.97;9.00;;;-4.50;70.30;;;;;;5062021;28;20491;-74
2021/03/07 05:22:16;;;;;;;13.20;9.20;;;-4.50;70.80;;;;;;5062178;28;20545;-79
2021/03/07 05:24:42;;;;;;;12.00;8.47;;;-4.50;71.60;;;;;;5063987;28;20999;-75
2021/03/07 05:27:09;;;;;;;11.50;7.77;;;-4.60;71.30;;;;;;5067403;28;20462;-76
2021/03/07 05:29:35;;;;;;;13.00;8.93;;;-4.60;71.80;;;;;;5057725;28;20444;-75
2021/03/07 05:32:02;;;;;;;11.50;7.50;;;-4.60;71.60;;;;;;5063783;28;20542;-77
2021/03/07 05:34:31;;;;;;;12.03;8.00;;;-4.70;71.10;;;;;;5061875;28;20817;-74
2021/03/07 05:36:57;;;;;;;10.00;7.57;;;-4.80;71.90;;;;;;5066532;28;20446;-75
2021/03/07 05:39:25;;;;;;;12.90;8.13;;;-4.90;73.00;;;;;;5058159;28;21295;-78
2021/03/07 05:41:52;;;;;;;10.57;7.80;;;-5.00;72.70;;;;;;5064813;28;20477;-76
2021/03/07 05:44:18;;;;;;;11.27;7.13;;;-4.90;73.40;;;;;;5060189;28;20461;-78
2021/03/07 05:46:44;;;;;;;8.13;7.27;;;-5.00;73.20;;;;;;5060697;28;21255;-75
2021/03/07 05:49:11;;;;;;;11.77;7.70;;;-5.00;73.20;;;;;;5057350;28;20448;-77
2021/03/07 05:51:39;;;;;;;12.17;7.03;;;-4.90;73.60;;;;;;5061332;28;20569;-75
2021/03/07 05:54:05;;;;;;;10.57;7.97;;;-4.90;72.80;;;;;;5060767;28;20548;-77
2021/03/07 05:56:32;;;;;;;10.63;7.50;;;-4.90;72.60;;;;;;5060494;28;20446;-76
2021/03/07 05:58:59;;;;;;;14.83;8.23;;;-4.90;73.00;;;;;;5059917;28;20491;-75
2021/03/07 06:01:25;;;;;;;9.67;6.97;;;-4.90;72.10;;;;;;5059032;28;20468;-76
2021/03/07 06:03:51;;;;;;;11.47;7.80;;;-4.80;72.50;;;;;;5070431;28;20465;-76
2021/03/07 06:06:18;;;;;;;9.00;6.83;;;-4.90;71.80;;;;;;5061131;28;20941;-76
2021/03/07 06:08:45;;;;;;;8.77;7.23;;;-4.80;72.50;;;;;;5061710;28;20957;-75
2021/03/07 06:11:30;;;;;;;7.73;6.93;;;-4.80;72.30;;;;;;5068582;28;20552;-77
2021/03/07 06:13:56;;;;;;;10.60;7.70;;;-4.70;72.00;;;;;;5072246;28;20888;-76
2021/03/07 06:16:22;;;;;;;8.83;6.00;;;-4.70;71.80;;;;;;5068277;28;20578;-75
2021/03/07 06:18:49;;;;;;;9.70;6.10;;;-4.70;71.20;;;;;;5067033;28;20499;-74
2021/03/07 06:21:29;;;;;;;7.50;6.53;;;-4.70;71.00;;;;;;5063871;28;20455;-76
2021/03/07 06:23:56;;;;;;;7.87;6.20;;;-4.60;70.70;;;;;;5067645;28;20442;-75
2021/03/07 06:26:23;;;;;;;9.40;5.60;;;-4.60;70.50;;;;;;5065757;28;20477;-78
2021/03/07 06:29:05;;;;;;;9.23;7.00;;;-4.50;70.00;;;;;;5060848;28;20560;-79
2021/03/07 06:31:33;;;;;;;6.80;5.80;;;-4.50;69.70;;;;;;5063426;28;20456;-79
2021/03/07 06:34:00;;;;;;;6.50;4.83;;;-4.30;69.40;;;;;;5059420;28;20772;-80
2021/03/07 06:36:28;;;;;;;8.83;5.87;;;-4.30;68.80;;;;;;5065064;28;20452;-77
2021/03/07 06:38:58;;;;;;;7.80;5.10;;;-4.30;68.60;;;;;;5067844;28;20457;-81
2021/03/07 06:41:27;;;;;;;9.20;6.47;;;-4.20;68.30;;;;;;5060611;28;20445;-78
2021/03/07 06:44:08;;;;;;;6.53;5.30;;;-4.10;67.80;;;;;;5065025;28;20585;-77
2021/03/07 06:46:36;;;;;;;15.80;6.60;;;-4.00;67.40;;;;;;5066180;28;20439;-77
2021/03/07 06:49:03;;;;;;;9.10;6.30;;;-4.00;67.20;;;;;;5056208;28;20482;-78
2021/03/07 06:51:31;;;;;;;7.53;6.10;;;-3.90;67.00;;;;;;5064964;28;20534;-76
2021/03/07 06:53:59;;;;;;;10.00;6.00;;;-3.80;66.80;;;;;;5060919;28;20608;-76
2021/03/07 06:56:42;;;;;;;12.23;6.13;;;-3.70;66.50;;;;;;5060445;28;20469;-79
2021/03/07 06:59:13;;;;;;;7.77;5.30;;;-3.80;66.00;;;;;;5057701;28;20458;-77
2021/03/07 07:01:40;;;;;;;6.47;5.60;;;-3.70;65.50;;;;;;5058728;28;20547;-80
2021/03/07 07:04:07;;;;;;;9.40;5.87;;;-3.60;65.60;;;;;;5055178;28;20995;-79
2021/03/07 07:06:35;;;;;;;10.17;5.80;;;-3.50;65.60;;;;;;5061094;28;20926;-75
2021/03/07 07:09:03;;;;;;;7.10;4.73;;;-3.40;65.40;;;;;;5053696;28;20454;-78
2021/03/07 07:11:41;;;;;;;6.70;5.57;;;-3.30;64.80;;;;;;5062982;28;20453;-77
2021/03/07 07:14:07;;;;;;;8.00;6.10;;;-3.10;64.40;;;;;;5059128;28;20510;-79
2021/03/07 07:16:34;;;;;;;7.50;4.73;;;-3.00;64.00;;;;;;5062262;28;20546;-79
2021/03/07 07:19:01;;;;;;;6.03;4.93;;;-2.90;63.40;;;;;;5057667;28;20458;-80
2021/03/07 07:21:27;;;;;;;5.90;4.30;;;-2.70;62.80;;;;;;5065156;28;20955;-76
2021/03/07 07:23:54;;;;;;;5.73;4.87;;;-2.60;62.60;;;;;;5062382;28;20453;-82
2021/03/07 07:26:22;;;;;;;6.70;5.87;;;-2.70;62.00;;;;;;5059425;28;20439;-77
2021/03/07 07:28:48;;;;;;;7.07;5.40;;;-2.50;61.90;;;;;;5056469;28;20460;-79
2021/03/07 07:31:18;;;;;;;7.17;5.37;;;-2.40;61.80;;;;;;5060500;28;20570;-80
2021/03/07 07:33:50;;;;;;;7.37;5.77;;;-2.20;61.60;;;;;;5060937;28;20550;-76
2021/03/07 07:36:25;;;;;;;5.43;4.93;;;-2.10;61.00;;;;;;5063839;28;20559;-78
2021/03/07 07:38:53;;;;;;;6.70;5.50;;;-1.80;60.80;;;;;;5061190;28;20554;-78
2021/03/07 07:41:35;;;;;;;8.80;5.73;;;-1.90;60.00;;;;;;5058209;28;20458;-79
2021/03/07 07:44:05;;;;;;;7.07;5.30;;;-1.70;59.80;;;;;;5061290;28;20446;-80
2021/03/07 07:46:32;;;;;;;8.20;6.67;;;-1.70;59.20;;;;;;5057122;28;21156;-81
2021/03/07 07:49:00;;;;;;;7.30;5.43;;;-1.70;58.90;;;;;;5062865;28;20460;-77
2021/03/07 07:51:37;;;;;;;9.73;6.20;;;-1.40;58.90;;;;;;5059778;28;20825;-78
2021/03/07 07:54:05;;;;;;;7.00;6.00;;;-1.20;58.50;;;;;;5063256;28;21010;-77
2021/03/07 07:56:41;;;;;;;8.20;5.57;;;-1.10;57.70;;;;;;5067104;28;20462;-79
2021/03/07 07:59:09;;;;;;;7.80;5.90;;;-1.20;57.20;;;;;;5065702;28;20566;-77
2021/03/07 08:01:57;;;;;;;7.27;6.13;;;-0.90;57.30;;;;;;5061466;28;20446;-77
2021/03/07 08:04:37;;;;;;;8.93;6.00;;;-0.80;56.90;;;;;;5049626;28;20488;-78
2021/03/07 08:07:05;;;;;;;9.23;6.33;;;-0.50;56.80;;;;;;5063726;28;20467;-78
2021/03/07 08:09:37;;;;;;;7.37;6.33;;;-0.30;56.20;;;;;;5064787;28;20966;-78
2021/03/07 08:12:37;;;;;;;10.00;6.87;;;-0.20;55.90;;;;;;5062132;28;20566;-80
2021/03/07 08:15:43;;;;;;;8.13;6.20;;;0.00;55.50;;;;;;5065975;28;20479;-78
2021/03/07 08:18:10;;;;;;;8.97;5.80;;;0.10;55.20;;;;;;5062636;28;20590;-77
2021/03/07 08:20:59;;;;;;;8.17;6.37;;;0.00;53.80;;;;;;5064706;28;20484;-76
2021/03/07 08:23:26;;;;;;;7.20;6.27;;;0.20;53.70;;;;;;5065063;28;20933;-77
2021/03/07 08:26:02;;;;;;;6.87;6.20;;;0.40;53.60;;;;;;5062045;28;20561;-77
2021/03/07 08:28:41;;;;;;;7.17;5.37;;;0.50;53.00;;;;;;5062647;28;20452;-77
2021/03/07 08:31:30;;;;;;;6.03;5.27;;;0.60;52.80;;;;;;5060908;28;20517;-78
2021/03/07 08:34:22;;;;;;;10.40;6.47;;;0.70;52.00;;;;;;5064201;28;20501;-78
2021/03/07 08:36:55;;;;;;;7.67;5.80;;;1.00;51.60;;;;;;5064030;28;20445;-77
2021/03/07 08:39:22;;;;;;;7.00;5.73;;;1.10;51.10;;;;;;5064116;28;20457;-78
2021/03/07 08:42:02;;;;;;;8.13;6.00;;;0.80;49.60;;;;;;5058229;28;20544;-79
2021/03/07 08:44:30;;;;;;;8.73;6.10;;;1.30;49.40;;;;;;5058545;28;20456;-77
2021/03/07 08:46:58;;;;;;;6.00;5.40;;;1.50;49.20;;;;;;5060293;28;20990;-79
2021/03/07 08:49:27;;;;;;;5.60;5.10;;;1.40;48.20;;;;;;5060279;28;20496;-78
2021/03/07 08:52:00;;;;;;;5.90;5.27;;;1.60;48.10;;;;;;5060236;28;20492;-77
2021/03/07 08:54:30;;;;;;;7.20;5.90;;;1.80;47.90;;;;;;5062179;28;20472;-77
2021/03/07 08:56:57;;;;;;;9.53;5.70;;;2.10;47.60;;;;;;5066048;28;20453;-80
2021/03/07 08:59:28;;;;;;;9.37;5.60;;;2.30;47.20;;;;;;5063961;28;20502;-79
2021/03/07 09:01:55;;;;;;;6.70;5.20;;;2.40;46.00;;;;;;5067588;28;21240;-78
2021/03/07 09:04:23;;;;;;;5.97;4.90;;;2.60;45.50;;;;;;5064980;28;20455;-81
2021/03/07 09:06:52;;;;;;;6.77;5.37;;;2.70;44.40;;;;;;5060098;28;20529;-76
2021/03/07 09:09:20;;;;;;;7.10;5.40;;;2.70;44.00;;;;;;5058806;28;20445;-77
2021/03/07 09:11:49;;;;;;;5.73;5.23;;;2.50;44.10;;;;;;5068753;28;20449;-78
2021/03/07 09:14:16;;;;;;;5.60;4.90;;;2.70;44.20;;;;;;5063639;28;20568;-78
2021/03/07 09:16:46;;;;;;;7.17;5.00;;;2.90;44.00;;;;;;5067841;28;20524;-79
2021/03/07 09:19:35;;;;;;;5.83;4.90;;;2.50;43.20;;;;;;5063564;28;20452;-78
2021/03/07 09:22:20;;;;;;;5.67;4.50;;;2.50;43.10;;;;;;5063606;28;20448;-78
2021/03/07 09:24:58;;;;;;;5.33;4.47;;;2.90;43.50;;;;;;5067164;28;20548;-83
2021/03/07 09:27:26;;;;;;;7.70;4.87;;;3.10;43.20;;;;;;5066425;28;20461;-80
2021/03/07 09:29:55;;;;;;;7.23;5.40;;;2.90;42.50;;;;;;5064897;28;20457;-79
2021/03/07 09:32:31;;;;;;;5.43;4.90;;;3.40;43.20;;;;;;5067989;28;20456;-78
2021/03/07 09:35:00;;;;;;;7.75;5.80;;;3.60;42.70;;;;;;5072681;28;20450;-84
2021/03/07 09:37:28;;;;;;;11.73;5.30;;;3.50;42.20;;;;;;5061970;28;20202;-83
2021/03/07 09:39:55;;;;;;;6.40;5.30;;;3.60;42.40;;;;;;5074885;28;20520;-86
2021/03/07 09:42:22;;;;;;;6.43;4.77;;;3.80;42.10;;;;;;5079023;28;20474;-85
2021/03/07 09:44:49;;;;;;;8.57;5.30;;;4.00;41.70;;;;;;5080620;28;20456;-84
2021/03/07 09:47:18;;;;;;;5.30;4.80;;;4.00;41.60;;;;;;5081514;28;20778;-86
2021/03/07 09:49:47;;;;;;;4.20;3.73;;;4.00;40.80;;;;;;5076057;28;20484;-83
2021/03/07 09:52:17;;;;;;;5.40;4.30;;;4.10;40.40;;;;;;5070659;28;20473;-84
2021/03/07 09:55:06;;;;;;;6.60;4.60;;;4.20;40.20;;;;;;5084223;28;20480;-87
2021/03/07 09:57:37;;;;;;;5.03;3.90;;;4.40;40.00;;;;;;5068246;28;20460;-85
2021/03/07 10:00:07;;;;;;;5.03;4.60;;;4.60;40.20;;;;;;5084758;28;20542;-86
2021/03/07 10:02:35;;;;;;;7.40;5.03;;;4.80;39.70;;;;;;5078709;28;20495;-84
2021/03/07 10:05:11;;;;;;;5.23;4.20;;;5.00;39.70;;;;;;5084448;28;20452;-85
2021/03/07 10:07:39;;;;;;;4.97;4.47;;;5.10;39.20;;;;;;5081340;28;20444;-83
2021/03/07 10:10:10;;;;;;;5.67;4.77;;;4.80;38.70;;;;;;5082692;28;20456;-82
2021/03/07 10:12:42;;;;;;;4.80;4.30;;;4.90;39.00;;;;;;5080228;28;20937;-83
2021/03/07 10:15:12;;;;;;;4.83;4.33;;;4.80;39.00;;;;;;5079317;28;20478;-85
2021/03/07 10:17:42;;;;;;;5.90;4.50;;;5.00;39.40;;;;;;5058975;28;20479;-84
2021/03/07 10:20:15;;;;;;;4.20;3.77;;;5.00;38.80;;;;;;5083321;28;20452;-83
2021/03/07 10:22:45;;;;;;;5.63;4.27;;;5.20;39.50;;;;;;5083494;28;20467;-85
2021/03/07 10:25:24;;;;;;;9.27;4.77;;;5.40;39.70;;;;;;5082780;28;20463;-86
2021/03/07 10:28:03;;;;;;;4.60;4.13;;;5.50;38.90;;;;;;5080577;28;20449;-84
2021/03/07 10:30:34;;;;;;;5.57;4.43;;;5.30;38.50;;;;;;5082647;28;20519;-87
2021/03/07 10:33:16;;;;;;;4.67;4.13;;;5.50;39.00;;;;;;5065277;28;20465;-83
2021/03/07 10:36:05;;;;;;;5.00;4.47;;;5.50;38.80;;;;;;5072431;28;20517;-82
2021/03/07 10:38:34;;;;;;;7.03;4.87;;;5.70;38.90;;;;;;5071850;28;20462;-83
2021/03/07 10:41:17;;;;;;;5.80;4.10;;;5.80;38.30;;;;;;5071006;28;20486;-83
2021/03/07 10:43:48;;;;;;;5.00;4.30;;;5.70;37.70;;;;;;5049816;28;20455;-84
2021/03/07 10:46:29;;;;;;;6.40;4.30;;;5.50;37.80;;;;;;5065523;28;20452;-83
2021/03/07 10:48:56;;;;;;;6.30;4.93;;;5.40;37.90;;;;;;5074184;28;20520;-87
2021/03/07 10:51:23;;;;;;;9.50;5.00;;;5.50;38.00;;;;;;5081646;28;21019;-84
2021/03/07 10:53:52;;;;;;;5.77;4.57;;;5.70;37.50;;;;;;5073951;28;20472;-83
2021/03/07 10:56:18;;;;;;;5.73;4.57;;;5.90;37.60;;;;;;5074950;28;20437;-84
2021/03/07 10:58:46;;;;;;;5.37;4.80;;;6.20;37.30;;;;;;5065965;28;20454;-84
2021/03/07 11:01:15;;;;;;;6.00;5.07;;;6.20;37.30;;;;;;5070221;28;20992;-84
2021/03/07 11:03:42;;;;;;;5.10;4.47;;;6.20;37.30;;;;;;5057182;28;20519;-82
2021/03/07 11:06:09;;;;;;;5.27;4.77;;;6.30;37.20;;;;;;5065323;28;20476;-83
2021/03/07 11:08:36;;;;;;;4.70;4.20;;;6.20;36.30;;;;;;5072791;28;20458;-83
2021/03/07 11:11:04;;;;;;;6.80;4.50;;;6.00;35.50;;;;;;5069195;28;20552;-83
2021/03/07 11:13:31;;;;;;;4.47;4.07;;;6.00;35.70;;;;;;5068324;28;20469;-84
2021/03/07 11:15:58;;;;;;;5.40;4.67;;;6.10;35.80;;;;;;5063018;28;20440;-82
2021/03/07 11:18:24;;;;;;;6.20;4.83;;;6.00;35.90;;;;;;5066736;28;20522;-84
2021/03/07 11:20:51;;;;;;;5.80;5.00;;;5.90;35.70;;;;;;5068336;28;20461;-82
2021/03/07 11:23:17;;;;;;;6.63;4.70;;;5.90;35.20;;;;;;5067046;28;20473;-84
2021/03/07 11:25:45;;;;;;;4.77;4.30;;;5.90;34.90;;;;;;5072376;28;20509;-81
2021/03/07 11:28:13;;;;;;;4.83;4.43;;;6.10;34.50;;;;;;5053899;28;20460;-81
2021/03/07 11:30:40;;;;;;;5.20;4.70;;;5.80;34.60;;;;;;5069349;28;20476;-84
2021/03/07 11:33:06;;;;;;;5.63;5.13;;;6.10;34.50;;;;;;5071332;28;20946;-80
2021/03/07 11:35:33;;;;;;;6.03;5.43;;;6.40;34.60;;;;;;5064342;28;20540;-81
2021/03/07 11:38:00;;;;;;;4.87;4.37;;;6.50;34.50;;;;;;5068849;28;20457;-79
2021/03/07 11:40:26;;;;;;;6.37;4.90;;;6.70;34.60;;;;;;5068759;28;20462;-80
2021/03/07 11:42:53;;;;;;;5.37;4.40;;;6.40;34.30;;;;;;5062818;28;20469;-82
2021/03/07 11:45:21;;;;;;;5.00;4.47;;;6.50;34.50;;;;;;5064023;28;20518;-79
2021/03/07 11:47:47;;;;;;;5.97;4.40;;;6.40;33.50;;;;;;5072888;28;20440;-81
2021/03/07 11:50:14;;;;;;;5.13;4.37;;;6.30;33.50;;;;;;5073240;28;20517;-81
2021/03/07 11:52:41;;;;;;;5.27;4.60;;;6.70;34.40;;;;;;5073825;28;20466;-83
2021/03/07 11:55:08;;;;;;;5.43;4.60;;;6.80;34.70;;;;;;5064516;28;20995;-79
2021/03/07 11:57:35;;;;;;;6.63;5.43;;;6.60;34.60;;;;;;5061521;28;20471;-77
2021/03/07 12:00:01;;;;;;;5.50;4.80;;;6.70;35.00;;;;;;5060945;28;20492;-79
2021/03/07 12:02:29;;;;;;;5.00;4.50;;;6.60;34.60;;;;;;5059390;28;20480;-77
2021/03/07 12:04:55;;;;;;;5.57;4.70;;;6.60;34.40;;;;;;5066111;28;20450;-79
2021/03/07 12:07:21;;;;;;;5.03;4.47;;;6.80;34.50;;;;;;5067482;28;20485;-79
2021/03/07 12:09:48;;;;;;;6.40;4.97;;;6.70;34.50;;;;;;5065962;28;20507;-80
2021/03/07 12:12:15;;;;;;;5.27;4.77;;;6.50;34.60;;;;;;5064656;28;20480;-78
2021/03/07 12:14:42;;;;;;;5.43;4.83;;;6.90;34.70;;;;;;5071409;28;20479;-84
2021/03/07 12:17:08;;;;;;;5.50;4.67;;;7.00;34.70;;;;;;5070159;28;20561;-78
2021/03/07 12:19:36;;;;;;;5.90;5.00;;;7.10;35.20;;;;;;5071333;28;20444;-80
2021/03/07 12:22:03;;;;;;;6.07;5.10;;;7.00;34.90;;;;;;5056929;28;20454;-77
2021/03/07 12:24:29;;;;;;;6.07;4.57;;;7.00;35.20;;;;;;5064899;28;20890;-77
2021/03/07 12:27:04;;;;;;;7.20;5.10;;;7.00;34.90;;;;;;5064115;28;20455;-79
2021/03/07 12:29:31;;;;;;;6.77;4.40;;;6.90;34.60;;;;;;5065553;28;20500;-77
2021/03/07 12:31:58;;;;;;;5.10;4.27;;;7.10;34.70;;;;;;5062618;28;20447;-78
2021/03/07 12:34:25;;;;;;;16.80;6.40;;;7.20;34.60;;;;;;5069470;28;20473;-77
2021/03/07 12:36:52;;;;;;;13.67;5.80;;;7.20;34.40;;;;;;5069584;28;20653;-80
2021/03/07 12:39:18;;;;;;;7.93;4.80;;;7.30;34.40;;;;;;5064976;28;20458;-79
2021/03/07 12:41:45;;;;;;;6.83;5.77;;;7.40;34.70;;;;;;5066882;28;20439;-78
2021/03/07 12:44:12;;;;;;;6.00;4.93;;;7.40;34.70;;;;;;5065804;28;20452;-77
2021/03/07 12:46:38;;;;;;;6.90;5.80;;;7.50;34.60;;;;;;5065263;28;20471;-78
2021/03/07 12:49:06;;;;;;;5.90;5.33;;;7.40;35.00;;;;;;5066171;28;20530;-79
2021/03/07 12:51:32;;;;;;;6.83;5.23;;;7.20;35.20;;;;;;5066546;28;20458;-77
2021/03/07 12:54:00;;;;;;;8.23;5.47;;;7.30;35.00;;;;;;5064695;28;20565;-78
2021/03/07 12:56:26;;;;;;;6.70;6.00;;;7.40;34.70;;;;;;5068815;28;20977;-79
2021/03/07 12:58:53;;;;;;;6.70;5.73;;;7.60;34.70;;;;;;5063014;28;20975;-78